sensor_id;sensor_type;location;lat;lon;timestamp;P1;durP1;ratioP1;P2;durP2;ratioP2
12721;SDS011;6425;50.316;8.114;2023-04-03T00:00:00;2.3;;;1.7;;
12721;SDS011;6425;50.316;8.114;2023-04-03T00:03:00;2.2;;;1.6;;
12721;SDS011;6425;50.316;8.114;2023-04-03T00:06:00;2.2;;;1.6;;
12721;SDS011;6425;50.316;8.114;2023-04-03T00:09:00;2.5;;;1.9;;
12721;SDS011;6425;50.316;8.114;2023-04-03T00:12:00;3.9;;;1.8;;
12721;SDS011;6425;50.316;8.114;2023-04-03T00:15:00;3.9;;;1.8;;
12721;SDS011;6425;50.316;8.114;2023-04-03T00:18:00;3.2;;;1.6;;
12721;SDS011;6425;50.316;8.114;2023-04-03T00:21:00;3.2;;;1.6;;
12721;SDS011;6425;50.316;8.114;2023-04-03T00:24:00;2.4;;;1.5;;
12721;SDS011;6425;50.316;8.114;2023-04-03T00:27:00;3.1;;;1.8;;
12721;SDS011;6425;50.316;8.114;2023-04-03T00:30:00;3.1;;;1.8;;
12721;SDS011;6425;50.316;8.114;2023-04-03T00:33:00;2.1;;;1.7;;
12721;SDS011;6425;50.316;8.114;2023-04-03T00:36:04;2.1;;;1.7;;
12721;SDS011;6425;50.316;8.114;2023-04-03T00:39:00;3.7;;;1.8;;
12721;SDS011;6425;50.316;8.114;2023-04-03T00:42:00;1.9;;;1.3;;
12721;SDS011;6425;50.316;8.114;2023-04-03T00:45:33;1.9;;;1.3;;
12721;SDS011;6425;50.316;8.114;2023-04-03T00:48:00;3.6;;;1.9;;
12721;SDS011;6425;50.316;8.114;2023-04-03T00:51:00;3.6;;;1.9;;
12721;SDS011;6425;50.316;8.114;2023-04-03T00:54:00;3.6;;;1.9;;
12721;SDS011;6425;50.316;8.114;2023-04-03T00:57:00;4.4;;;1.6;;
12721;SDS011;6425;50.316;8.114;2023-04-03T01:00:02;4.4;;;1.6;;
12721;SDS011;6425;50.316;8.114;2023-04-03T01:03:00;2.2;;;1.7;;
12721;SDS011;6425;50.316;8.114;2023-04-03T01:06:00;2.2;;;1.7;;
12721;SDS011;6425;50.316;8.114;2023-04-03T01:09:00;2.4;;;1.8;;
12721;SDS011;6425;50.316;8.114;2023-04-03T01:12:12;3.5;;;1.9;;
12721;SDS011;6425;50.316;8.114;2023-04-03T01:15:00;3.5;;;1.9;;
12721;SDS011;6425;50.316;8.114;2023-04-03T01:18:00;3.3;;;2;;
12721;SDS011;6425;50.316;8.114;2023-04-03T01:21:07;3.3;;;2;;
12721;SDS011;6425;50.316;8.114;2023-04-03T01:24:04;3.1;;;2.2;;
12721;SDS011;6425;50.316;8.114;2023-04-03T01:27:00;5.5;;;2.6;;
12721;SDS011;6425;50.316;8.114;2023-04-03T01:30:00;5.5;;;2.6;;
12721;SDS011;6425;50.316;8.114;2023-04-03T01:33:00;5.1;;;2.4;;
12721;SDS011;6425;50.316;8.114;2023-04-03T01:36:00;5.1;;;2.4;;
12721;SDS011;6425;50.316;8.114;2023-04-03T01:39:00;3.2;;;2.3;;
12721;SDS011;6425;50.316;8.114;2023-04-03T01:42:00;4;;;2.2;;
12721;SDS011;6425;50.316;8.114;2023-04-03T01:45:00;4;;;2.2;;
12721;SDS011;6425;50.316;8.114;2023-04-03T01:48:00;2.8;;;2.3;;
12721;SDS011;6425;50.316;8.114;2023-04-03T01:51:00;2.8;;;2.3;;
12721;SDS011;6425;50.316;8.114;2023-04-03T01:54:00;4.6;;;2;;
12721;SDS011;6425;50.316;8.114;2023-04-03T01:57:00;3.2;;;2.4;;
12721;SDS011;6425;50.316;8.114;2023-04-03T02:00:00;3.2;;;2.4;;
12721;SDS011;6425;50.316;8.114;2023-04-03T02:03:00;4.3;;;2.2;;
12721;SDS011;6425;50.316;8.114;2023-04-03T02:06:00;4.3;;;2.2;;
12721;SDS011;6425;50.316;8.114;2023-04-03T02:09:00;3.9;;;1.9;;
12721;SDS011;6425;50.316;8.114;2023-04-03T02:12:00;3.8;;;2.2;;
12721;SDS011;6425;50.316;8.114;2023-04-03T02:15:00;3.8;;;2.2;;
12721;SDS011;6425;50.316;8.114;2023-04-03T02:18:00;2.9;;;1.8;;
12721;SDS011;6425;50.316;8.114;2023-04-03T02:21:00;2.9;;;1.8;;
12721;SDS011;6425;50.316;8.114;2023-04-03T02:24:00;2.9;;;2.2;;
12721;SDS011;6425;50.316;8.114;2023-04-03T02:27:00;3.7;;;2.7;;
12721;SDS011;6425;50.316;8.114;2023-04-03T02:30:00;3.7;;;2.7;;
12721;SDS011;6425;50.316;8.114;2023-04-03T02:33:00;5.9;;;3.9;;
12721;SDS011;6425;50.316;8.114;2023-04-03T02:36:00;5.9;;;3.9;;
12721;SDS011;6425;50.316;8.114;2023-04-03T02:39:00;4.8;;;3.1;;
12721;SDS011;6425;50.316;8.114;2023-04-03T02:42:00;4.6;;;2.1;;
12721;SDS011;6425;50.316;8.114;2023-04-03T02:45:00;4.6;;;2.1;;
12721;SDS011;6425;50.316;8.114;2023-04-03T02:48:00;4.9;;;2.9;;
12721;SDS011;6425;50.316;8.114;2023-04-03T02:51:00;3.2;;;2.7;;
12721;SDS011;6425;50.316;8.114;2023-04-03T02:54:00;3.2;;;2.7;;
12721;SDS011;6425;50.316;8.114;2023-04-03T02:57:00;4.2;;;2.5;;
12721;SDS011;6425;50.316;8.114;2023-04-03T03:00:00;4.2;;;2.5;;
12721;SDS011;6425;50.316;8.114;2023-04-03T03:03:00;3.9;;;1.7;;
12721;SDS011;6425;50.316;8.114;2023-04-03T03:06:00;3.5;;;2.3;;
12721;SDS011;6425;50.316;8.114;2023-04-03T03:09:00;3.5;;;2.3;;
12721;SDS011;6425;50.316;8.114;2023-04-03T03:12:00;2.6;;;1.8;;
12721;SDS011;6425;50.316;8.114;2023-04-03T03:15:00;2.6;;;1.8;;
12721;SDS011;6425;50.316;8.114;2023-04-03T03:18:00;4.4;;;2.1;;
12721;SDS011;6425;50.316;8.114;2023-04-03T03:21:00;2.9;;;2.2;;
12721;SDS011;6425;50.316;8.114;2023-04-03T03:24:00;2.9;;;2.2;;
12721;SDS011;6425;50.316;8.114;2023-04-03T03:27:00;2.8;;;1.6;;
12721;SDS011;6425;50.316;8.114;2023-04-03T03:30:00;2.8;;;1.6;;
12721;SDS011;6425;50.316;8.114;2023-04-03T03:33:00;2.8;;;2.3;;
12721;SDS011;6425;50.316;8.114;2023-04-03T03:36:00;3.6;;;2.2;;
12721;SDS011;6425;50.316;8.114;2023-04-03T03:39:00;3.6;;;2.2;;
12721;SDS011;6425;50.316;8.114;2023-04-03T03:42:00;3.7;;;2.2;;
12721;SDS011;6425;50.316;8.114;2023-04-03T03:45:00;3.7;;;2.2;;
12721;SDS011;6425;50.316;8.114;2023-04-03T03:48:00;4;;;1.4;;
12721;SDS011;6425;50.316;8.114;2023-04-03T03:51:00;4.4;;;1.5;;
12721;SDS011;6425;50.316;8.114;2023-04-03T03:54:00;4.4;;;1.5;;
12721;SDS011;6425;50.316;8.114;2023-04-03T03:57:00;2.6;;;1.3;;
12721;SDS011;6425;50.316;8.114;2023-04-03T04:00:00;2.6;;;1.3;;
12721;SDS011;6425;50.316;8.114;2023-04-03T04:03:00;4.1;;;1.6;;
12721;SDS011;6425;50.316;8.114;2023-04-03T04:06:00;4.5;;;1.1;;
12721;SDS011;6425;50.316;8.114;2023-04-03T04:09:00;4.5;;;1.1;;
12721;SDS011;6425;50.316;8.114;2023-04-03T04:12:00;4.4;;;1.3;;
12721;SDS011;6425;50.316;8.114;2023-04-03T04:15:00;4.4;;;1.3;;
12721;SDS011;6425;50.316;8.114;2023-04-03T04:18:00;1.6;;;0.8;;
12721;SDS011;6425;50.316;8.114;2023-04-03T04:21:00;3.5;;;0.9;;
12721;SDS011;6425;50.316;8.114;2023-04-03T04:24:00;3.5;;;0.9;;
12721;SDS011;6425;50.316;8.114;2023-04-03T04:27:00;4.1;;;1.1;;
12721;SDS011;6425;50.316;8.114;2023-04-03T04:30:00;4.1;;;1.1;;
12721;SDS011;6425;50.316;8.114;2023-04-03T04:33:00;6.3;;;1.5;;
12721;SDS011;6425;50.316;8.114;2023-04-03T04:36:00;3.8;;;1.3;;
12721;SDS011;6425;50.316;8.114;2023-04-03T04:39:00;3.8;;;1.3;;
12721;SDS011;6425;50.316;8.114;2023-04-03T04:42:00;4.4;;;1.4;;
12721;SDS011;6425;50.316;8.114;2023-04-03T04:45:00;4.4;;;1.4;;
12721;SDS011;6425;50.316;8.114;2023-04-03T04:48:00;3;;;1;;
12721;SDS011;6425;50.316;8.114;2023-04-03T04:51:00;3.3;;;1;;
12721;SDS011;6425;50.316;8.114;2023-04-03T04:54:00;3.3;;;1;;
12721;SDS011;6425;50.316;8.114;2023-04-03T04:57:00;4.3;;;1.6;;
12721;SDS011;6425;50.316;8.114;2023-04-03T05:00:00;4.3;;;1.6;;
12721;SDS011;6425;50.316;8.114;2023-04-03T05:03:00;4.8;;;1.2;;
12721;SDS011;6425;50.316;8.114;2023-04-03T05:06:00;4.3;;;1.1;;
12721;SDS011;6425;50.316;8.114;2023-04-03T05:09:00;4.3;;;1.1;;
12721;SDS011;6425;50.316;8.114;2023-04-03T05:12:00;4;;;1.8;;
12721;SDS011;6425;50.316;8.114;2023-04-03T05:15:00;4;;;1.8;;
12721;SDS011;6425;50.316;8.114;2023-04-03T05:18:00;4;;;1.3;;
12721;SDS011;6425;50.316;8.114;2023-04-03T05:21:00;5;;;1.1;;
12721;SDS011;6425;50.316;8.114;2023-04-03T05:24:00;5;;;1.1;;
12721;SDS011;6425;50.316;8.114;2023-04-03T05:27:00;6.1;;;1.4;;
12721;SDS011;6425;50.316;8.114;2023-04-03T05:30:00;3.5;;;1.3;;
12721;SDS011;6425;50.316;8.114;2023-04-03T05:33:00;3.5;;;1.3;;
12721;SDS011;6425;50.316;8.114;2023-04-03T05:36:01;4.3;;;1.1;;
12721;SDS011;6425;50.316;8.114;2023-04-03T05:39:00;4.3;;;1.1;;
12721;SDS011;6425;50.316;8.114;2023-04-03T05:42:00;3.4;;;2.7;;
12721;SDS011;6425;50.316;8.114;2023-04-03T05:45:00;3.6;;;2;;
12721;SDS011;6425;50.316;8.114;2023-04-03T05:48:00;3.6;;;2;;
12721;SDS011;6425;50.316;8.114;2023-04-03T05:51:00;6.1;;;1.6;;
12721;SDS011;6425;50.316;8.114;2023-04-03T05:54:00;6.1;;;1.6;;
12721;SDS011;6425;50.316;8.114;2023-04-03T05:57:00;2.9;;;1.3;;
12721;SDS011;6425;50.316;8.114;2023-04-03T06:00:00;3.6;;;1.3;;
12721;SDS011;6425;50.316;8.114;2023-04-03T06:03:00;3.6;;;1.3;;
12721;SDS011;6425;50.316;8.114;2023-04-03T06:06:01;6.2;;;1.8;;
12721;SDS011;6425;50.316;8.114;2023-04-03T06:09:00;6.2;;;1.8;;
12721;SDS011;6425;50.316;8.114;2023-04-03T06:12:00;4.5;;;1.3;;
12721;SDS011;6425;50.316;8.114;2023-04-03T06:15:00;4;;;1.6;;
12721;SDS011;6425;50.316;8.114;2023-04-03T06:18:00;4;;;1.6;;
12721;SDS011;6425;50.316;8.114;2023-04-03T06:21:00;4.2;;;1.9;;
12721;SDS011;6425;50.316;8.114;2023-04-03T06:24:00;4.2;;;1.9;;
12721;SDS011;6425;50.316;8.114;2023-04-03T06:27:00;3.4;;;1.4;;
12721;SDS011;6425;50.316;8.114;2023-04-03T06:30:00;4.6;;;1.6;;
12721;SDS011;6425;50.316;8.114;2023-04-03T06:33:00;4.6;;;1.6;;
12721;SDS011;6425;50.316;8.114;2023-04-03T06:36:00;4.7;;;2;;
12721;SDS011;6425;50.316;8.114;2023-04-03T06:39:00;4.7;;;2;;
12721;SDS011;6425;50.316;8.114;2023-04-03T06:42:00;8.4;;;1.8;;
12721;SDS011;6425;50.316;8.114;2023-04-03T06:45:00;5;;;2.3;;
12721;SDS011;6425;50.316;8.114;2023-04-03T06:48:00;5;;;2.3;;
12721;SDS011;6425;50.316;8.114;2023-04-03T06:51:00;7.3;;;2;;
12721;SDS011;6425;50.316;8.114;2023-04-03T06:54:00;7.3;;;2;;
12721;SDS011;6425;50.316;8.114;2023-04-03T06:57:00;10.8;;;4.2;;
12721;SDS011;6425;50.316;8.114;2023-04-03T07:00:00;7;;;2.9;;
12721;SDS011;6425;50.316;8.114;2023-04-03T07:03:00;7;;;2.9;;
12721;SDS011;6425;50.316;8.114;2023-04-03T07:06:00;4.8;;;3.1;;
12721;SDS011;6425;50.316;8.114;2023-04-03T07:09:00;4.8;;;3.1;;
12721;SDS011;6425;50.316;8.114;2023-04-03T07:12:00;3.8;;;2.4;;
12721;SDS011;6425;50.316;8.114;2023-04-03T07:15:00;3.9;;;2.5;;
12721;SDS011;6425;50.316;8.114;2023-04-03T07:18:00;3.9;;;2.5;;
12721;SDS011;6425;50.316;8.114;2023-04-03T07:21:00;5.6;;;2.7;;
12721;SDS011;6425;50.316;8.114;2023-04-03T07:24:00;5.6;;;2.7;;
12721;SDS011;6425;50.316;8.114;2023-04-03T07:27:00;5.7;;;3.5;;
12721;SDS011;6425;50.316;8.114;2023-04-03T07:30:00;5.1;;;2.7;;
12721;SDS011;6425;50.316;8.114;2023-04-03T07:33:00;5.1;;;2.7;;
12721;SDS011;6425;50.316;8.114;2023-04-03T07:36:00;3.9;;;2.3;;
12721;SDS011;6425;50.316;8.114;2023-04-03T07:39:00;3.9;;;2.3;;
12721;SDS011;6425;50.316;8.114;2023-04-03T07:42:00;4;;;2.8;;
12721;SDS011;6425;50.316;8.114;2023-04-03T07:45:00;3.4;;;2.1;;
12721;SDS011;6425;50.316;8.114;2023-04-03T07:48:00;3.4;;;2.1;;
12721;SDS011;6425;50.316;8.114;2023-04-03T07:51:00;3.6;;;1.7;;
12721;SDS011;6425;50.316;8.114;2023-04-03T07:54:00;3.6;;;1.7;;
12721;SDS011;6425;50.316;8.114;2023-04-03T07:57:00;5.8;;;2.9;;
12721;SDS011;6425;50.316;8.114;2023-04-03T08:00:00;3.7;;;1.9;;
12721;SDS011;6425;50.316;8.114;2023-04-03T08:03:00;3.7;;;1.9;;
12721;SDS011;6425;50.316;8.114;2023-04-03T08:06:01;4.3;;;2.3;;
12721;SDS011;6425;50.316;8.114;2023-04-03T08:09:00;8.4;;;3.6;;
12721;SDS011;6425;50.316;8.114;2023-04-03T08:12:00;8.4;;;3.6;;
12721;SDS011;6425;50.316;8.114;2023-04-03T08:15:00;3.8;;;2.4;;
12721;SDS011;6425;50.316;8.114;2023-04-03T08:18:00;3.8;;;2.4;;
12721;SDS011;6425;50.316;8.114;2023-04-03T08:21:00;6;;;2.8;;
12721;SDS011;6425;50.316;8.114;2023-04-03T08:24:00;4.4;;;2.7;;
12721;SDS011;6425;50.316;8.114;2023-04-03T08:27:00;4.4;;;2.7;;
12721;SDS011;6425;50.316;8.114;2023-04-03T08:30:00;4.9;;;2.5;;
12721;SDS011;6425;50.316;8.114;2023-04-03T08:33:00;4.9;;;2.5;;
12721;SDS011;6425;50.316;8.114;2023-04-03T08:36:00;3.9;;;3.2;;
12721;SDS011;6425;50.316;8.114;2023-04-03T08:39:00;4;;;2;;
12721;SDS011;6425;50.316;8.114;2023-04-03T08:42:01;4;;;2;;
12721;SDS011;6425;50.316;8.114;2023-04-03T08:45:01;3.6;;;2.7;;
12721;SDS011;6425;50.316;8.114;2023-04-03T08:48:00;3.6;;;2.7;;
12721;SDS011;6425;50.316;8.114;2023-04-03T08:51:00;5.2;;;3.1;;
12721;SDS011;6425;50.316;8.114;2023-04-03T08:54:00;6.4;;;3.4;;
12721;SDS011;6425;50.316;8.114;2023-04-03T08:57:00;6.4;;;3.4;;
12721;SDS011;6425;50.316;8.114;2023-04-03T09:00:00;3.4;;;2.8;;
12721;SDS011;6425;50.316;8.114;2023-04-03T09:03:00;3.4;;;2.8;;
12721;SDS011;6425;50.316;8.114;2023-04-03T09:06:01;4.8;;;3;;
12721;SDS011;6425;50.316;8.114;2023-04-03T09:09:02;2.8;;;2.6;;
12721;SDS011;6425;50.316;8.114;2023-04-03T09:12:00;2.8;;;2.6;;
12721;SDS011;6425;50.316;8.114;2023-04-03T09:15:02;5.7;;;4;;
12721;SDS011;6425;50.316;8.114;2023-04-03T09:18:02;5.7;;;4;;
12721;SDS011;6425;50.316;8.114;2023-04-03T09:21:01;4.7;;;2.9;;
12721;SDS011;6425;50.316;8.114;2023-04-03T09:24:00;4.9;;;2.8;;
12721;SDS011;6425;50.316;8.114;2023-04-03T09:27:01;4.9;;;2.8;;
12721;SDS011;6425;50.316;8.114;2023-04-03T09:30:00;6.4;;;3.4;;
12721;SDS011;6425;50.316;8.114;2023-04-03T09:33:00;6.4;;;3.4;;
12721;SDS011;6425;50.316;8.114;2023-04-03T09:36:00;3.7;;;3.4;;
12721;SDS011;6425;50.316;8.114;2023-04-03T09:39:02;4.2;;;2.4;;
12721;SDS011;6425;50.316;8.114;2023-04-03T09:42:00;4.2;;;2.4;;
12721;SDS011;6425;50.316;8.114;2023-04-03T09:45:00;5;;;3.2;;
12721;SDS011;6425;50.316;8.114;2023-04-03T09:48:08;5;;;3.2;;
12721;SDS011;6425;50.316;8.114;2023-04-03T09:51:00;6.4;;;3.6;;
12721;SDS011;6425;50.316;8.114;2023-04-03T09:54:00;3.9;;;3.6;;
12721;SDS011;6425;50.316;8.114;2023-04-03T09:57:01;3.9;;;3.6;;
12721;SDS011;6425;50.316;8.114;2023-04-03T10:00:00;4.8;;;4.4;;
12721;SDS011;6425;50.316;8.114;2023-04-03T10:03:00;4.8;;;4.4;;
12721;SDS011;6425;50.316;8.114;2023-04-03T10:06:00;7;;;4.8;;
12721;SDS011;6425;50.316;8.114;2023-04-03T10:09:00;5;;;4.5;;
12721;SDS011;6425;50.316;8.114;2023-04-03T10:12:01;5;;;4.5;;
12721;SDS011;6425;50.316;8.114;2023-04-03T10:15:00;4.3;;;3.9;;
12721;SDS011;6425;50.316;8.114;2023-04-03T10:18:00;4.3;;;3.9;;
12721;SDS011;6425;50.316;8.114;2023-04-03T10:21:02;4.6;;;4.2;;
12721;SDS011;6425;50.316;8.114;2023-04-03T10:24:01;5;;;4.5;;
12721;SDS011;6425;50.316;8.114;2023-04-03T10:27:01;5;;;4.5;;
12721;SDS011;6425;50.316;8.114;2023-04-03T10:30:01;9.2;;;4.5;;
12721;SDS011;6425;50.316;8.114;2023-04-03T10:33:04;9.2;;;4.5;;
12721;SDS011;6425;50.316;8.114;2023-04-03T10:36:02;5.1;;;4.5;;
12721;SDS011;6425;50.316;8.114;2023-04-03T10:39:01;7.3;;;6.4;;
12721;SDS011;6425;50.316;8.114;2023-04-03T10:42:02;7.3;;;6.4;;
12721;SDS011;6425;50.316;8.114;2023-04-03T10:45:03;7.6;;;7;;
12721;SDS011;6425;50.316;8.114;2023-04-03T10:48:02;7.4;;;6.8;;
12721;SDS011;6425;50.316;8.114;2023-04-03T10:51:01;7;;;6.5;;
12721;SDS011;6425;50.316;8.114;2023-04-03T10:54:00;6.5;;;6.1;;
12721;SDS011;6425;50.316;8.114;2023-04-03T10:57:01;6.5;;;6.1;;
12721;SDS011;6425;50.316;8.114;2023-04-03T11:00:01;7.9;;;7.4;;
12721;SDS011;6425;50.316;8.114;2023-04-03T11:03:00;6.9;;;6.3;;
12721;SDS011;6425;50.316;8.114;2023-04-03T11:06:00;6.9;;;6.3;;
12721;SDS011;6425;50.316;8.114;2023-04-03T11:09:01;8.2;;;7.7;;
12721;SDS011;6425;50.316;8.114;2023-04-03T11:12:00;8.2;;;7.7;;
12721;SDS011;6425;50.316;8.114;2023-04-03T11:15:00;7;;;6.7;;
12721;SDS011;6425;50.316;8.114;2023-04-03T11:18:00;7.7;;;7.2;;
12721;SDS011;6425;50.316;8.114;2023-04-03T11:21:00;7.7;;;7.2;;
12721;SDS011;6425;50.316;8.114;2023-04-03T11:24:00;8.3;;;7.9;;
12721;SDS011;6425;50.316;8.114;2023-04-03T11:27:00;8.3;;;7.9;;
12721;SDS011;6425;50.316;8.114;2023-04-03T11:30:00;7.6;;;7;;
12721;SDS011;6425;50.316;8.114;2023-04-03T11:33:05;9.2;;;8.6;;
12721;SDS011;6425;50.316;8.114;2023-04-03T11:36:00;9.2;;;8.6;;
12721;SDS011;6425;50.316;8.114;2023-04-03T11:39:00;9.8;;;9.1;;
12721;SDS011;6425;50.316;8.114;2023-04-03T11:42:16;9.8;;;9.1;;
12721;SDS011;6425;50.316;8.114;2023-04-03T11:45:16;7.6;;;7.2;;
12721;SDS011;6425;50.316;8.114;2023-04-03T11:48:01;8.7;;;8.2;;
12721;SDS011;6425;50.316;8.114;2023-04-03T11:51:00;8.7;;;8.2;;
12721;SDS011;6425;50.316;8.114;2023-04-03T11:54:30;8.4;;;8;;
12721;SDS011;6425;50.316;8.114;2023-04-03T11:57:00;8.4;;;8;;
12721;SDS011;6425;50.316;8.114;2023-04-03T12:00:00;7.6;;;7.1;;
12721;SDS011;6425;50.316;8.114;2023-04-03T12:03:00;7.5;;;6.9;;
12721;SDS011;6425;50.316;8.114;2023-04-03T12:06:41;7.5;;;6.9;;
12721;SDS011;6425;50.316;8.114;2023-04-03T12:09:00;8.6;;;8.1;;
12721;SDS011;6425;50.316;8.114;2023-04-03T12:12:01;8.6;;;8.1;;
12721;SDS011;6425;50.316;8.114;2023-04-03T12:16:04;6.5;;;6.2;;
12721;SDS011;6425;50.316;8.114;2023-04-03T12:18:02;7.6;;;7.2;;
12721;SDS011;6425;50.316;8.114;2023-04-03T12:21:00;7.6;;;7.2;;
12721;SDS011;6425;50.316;8.114;2023-04-03T12:24:01;8.2;;;7.7;;
12721;SDS011;6425;50.316;8.114;2023-04-03T12:27:02;8.2;;;7.7;;
12721;SDS011;6425;50.316;8.114;2023-04-03T12:30:01;8.5;;;7.9;;
12721;SDS011;6425;50.316;8.114;2023-04-03T12:33:32;8.5;;;8;;
12721;SDS011;6425;50.316;8.114;2023-04-03T12:36:02;8.5;;;8;;
12721;SDS011;6425;50.316;8.114;2023-04-03T12:39:02;7.3;;;6.9;;
12721;SDS011;6425;50.316;8.114;2023-04-03T12:42:02;7.3;;;6.9;;
12721;SDS011;6425;50.316;8.114;2023-04-03T12:45:00;8.3;;;7.7;;
12721;SDS011;6425;50.316;8.114;2023-04-03T12:48:00;9.1;;;8.3;;
12721;SDS011;6425;50.316;8.114;2023-04-03T12:51:00;9.1;;;8.3;;
12721;SDS011;6425;50.316;8.114;2023-04-03T12:54:01;7.2;;;6.8;;
12721;SDS011;6425;50.316;8.114;2023-04-03T12:57:16;7.2;;;6.8;;
12721;SDS011;6425;50.316;8.114;2023-04-03T13:00:00;8.6;;;8.1;;
12721;SDS011;6425;50.316;8.114;2023-04-03T13:03:00;7.6;;;7.2;;
12721;SDS011;6425;50.316;8.114;2023-04-03T13:06:01;7.6;;;7.2;;
12721;SDS011;6425;50.316;8.114;2023-04-03T13:09:00;8.5;;;8;;
12721;SDS011;6425;50.316;8.114;2023-04-03T13:12:01;8.5;;;8;;
12721;SDS011;6425;50.316;8.114;2023-04-03T13:15:00;8.5;;;8;;
12721;SDS011;6425;50.316;8.114;2023-04-03T13:18:00;6.7;;;6.3;;
12721;SDS011;6425;50.316;8.114;2023-04-03T13:21:01;6.7;;;6.3;;
12721;SDS011;6425;50.316;8.114;2023-04-03T13:24:01;6.9;;;6.6;;
12721;SDS011;6425;50.316;8.114;2023-04-03T13:27:00;6.9;;;6.6;;
12721;SDS011;6425;50.316;8.114;2023-04-03T13:30:01;6.8;;;6.5;;
12721;SDS011;6425;50.316;8.114;2023-04-03T13:33:00;6.1;;;5.8;;
12721;SDS011;6425;50.316;8.114;2023-04-03T13:36:02;6.1;;;5.8;;
12721;SDS011;6425;50.316;8.114;2023-04-03T13:39:01;7.2;;;6.8;;
12721;SDS011;6425;50.316;8.114;2023-04-03T13:42:00;7.2;;;6.8;;
12721;SDS011;6425;50.316;8.114;2023-04-03T13:48:09;5.7;;;5.3;;
12721;SDS011;6425;50.316;8.114;2023-04-03T13:51:00;5.7;;;5.3;;
12721;SDS011;6425;50.316;8.114;2023-04-03T13:54:00;7.6;;;7.2;;
12721;SDS011;6425;50.316;8.114;2023-04-03T13:57:00;7;;;6.6;;
12721;SDS011;6425;50.316;8.114;2023-04-03T14:00:00;6.4;;;6.1;;
12721;SDS011;6425;50.316;8.114;2023-04-03T14:03:00;7.4;;;6.9;;
12721;SDS011;6425;50.316;8.114;2023-04-03T14:06:00;7.4;;;6.9;;
12721;SDS011;6425;50.316;8.114;2023-04-03T14:12:02;7.3;;;7;;
12721;SDS011;6425;50.316;8.114;2023-04-03T14:15:00;7.3;;;7;;
12721;SDS011;6425;50.316;8.114;2023-04-03T14:18:00;7;;;6.5;;
12721;SDS011;6425;50.316;8.114;2023-04-03T14:21:00;7;;;6.5;;
12721;SDS011;6425;50.316;8.114;2023-04-03T14:24:00;7.4;;;7;;
12721;SDS011;6425;50.316;8.114;2023-04-03T14:27:00;6.7;;;6.4;;
12721;SDS011;6425;50.316;8.114;2023-04-03T14:30:00;6.7;;;6.4;;
12721;SDS011;6425;50.316;8.114;2023-04-03T14:33:00;6.7;;;6.2;;
12721;SDS011;6425;50.316;8.114;2023-04-03T14:36:00;6.7;;;6.2;;
12721;SDS011;6425;50.316;8.114;2023-04-03T14:39:00;6.4;;;6.1;;
12721;SDS011;6425;50.316;8.114;2023-04-03T14:42:00;6.9;;;6.5;;
12721;SDS011;6425;50.316;8.114;2023-04-03T14:45:00;6.9;;;6.5;;
12721;SDS011;6425;50.316;8.114;2023-04-03T14:48:00;8.3;;;7.8;;
12721;SDS011;6425;50.316;8.114;2023-04-03T14:51:00;8.3;;;7.8;;
12721;SDS011;6425;50.316;8.114;2023-04-03T14:54:00;7.2;;;6.7;;
12721;SDS011;6425;50.316;8.114;2023-04-03T14:57:00;8.5;;;7.9;;
12721;SDS011;6425;50.316;8.114;2023-04-03T15:00:00;8.5;;;7.9;;
12721;SDS011;6425;50.316;8.114;2023-04-03T15:36:00;9.4;;;8.7;;
12721;SDS011;6425;50.316;8.114;2023-04-03T15:38:59;9.5;;;8.9;;
12721;SDS011;6425;50.316;8.114;2023-04-03T15:41:59;8.8;;;8.4;;
12721;SDS011;6425;50.316;8.114;2023-04-03T15:45:00;8.8;;;8.4;;
12721;SDS011;6425;50.316;8.114;2023-04-03T15:48:00;9.4;;;8.7;;
12721;SDS011;6425;50.316;8.114;2023-04-03T15:51:00;9.4;;;8.7;;
12721;SDS011;6425;50.316;8.114;2023-04-03T15:54:00;24.5;;;19.8;;
12721;SDS011;6425;50.316;8.114;2023-04-03T15:57:00;24.4;;;21.8;;
12721;SDS011;6425;50.316;8.114;2023-04-03T16:00:00;24.4;;;21.8;;
12721;SDS011;6425;50.316;8.114;2023-04-03T16:03:01;10.3;;;9.6;;
12721;SDS011;6425;50.316;8.114;2023-04-03T16:06:00;10.3;;;9.6;;
12721;SDS011;6425;50.316;8.114;2023-04-03T16:09:00;11.4;;;10.4;;
12721;SDS011;6425;50.316;8.114;2023-04-03T16:12:00;8.9;;;8.4;;
12721;SDS011;6425;50.316;8.114;2023-04-03T16:15:00;8.9;;;8.4;;
12721;SDS011;6425;50.316;8.114;2023-04-03T16:18:00;10.4;;;9.7;;
12721;SDS011;6425;50.316;8.114;2023-04-03T16:21:00;10.4;;;9.7;;
12721;SDS011;6425;50.316;8.114;2023-04-03T16:24:00;8.7;;;8.1;;
12721;SDS011;6425;50.316;8.114;2023-04-03T16:27:00;8;;;7.5;;
12721;SDS011;6425;50.316;8.114;2023-04-03T16:30:00;8;;;7.5;;
12721;SDS011;6425;50.316;8.114;2023-04-03T16:33:00;6.5;;;6.2;;
12721;SDS011;6425;50.316;8.114;2023-04-03T16:39:00;8.3;;;7.8;;
12721;SDS011;6425;50.316;8.114;2023-04-03T16:42:00;8.4;;;7.9;;
12721;SDS011;6425;50.316;8.114;2023-04-03T16:45:00;8.4;;;7.9;;
12721;SDS011;6425;50.316;8.114;2023-04-03T16:48:00;7.5;;;7.1;;
12721;SDS011;6425;50.316;8.114;2023-04-03T16:51:00;7.5;;;7.1;;
12721;SDS011;6425;50.316;8.114;2023-04-03T16:54:00;8.2;;;7.7;;
12721;SDS011;6425;50.316;8.114;2023-04-03T16:57:00;8.4;;;7.8;;
12721;SDS011;6425;50.316;8.114;2023-04-03T17:00:00;8.4;;;7.8;;
12721;SDS011;6425;50.316;8.114;2023-04-03T17:03:00;7.2;;;6.7;;
12721;SDS011;6425;50.316;8.114;2023-04-03T17:06:00;8.5;;;8;;
12721;SDS011;6425;50.316;8.114;2023-04-03T17:09:00;9;;;8.5;;
12721;SDS011;6425;50.316;8.114;2023-04-03T17:12:00;7.6;;;7.1;;
12721;SDS011;6425;50.316;8.114;2023-04-03T17:15:00;7.6;;;7.1;;
12721;SDS011;6425;50.316;8.114;2023-04-03T17:18:00;6.8;;;6.5;;
12721;SDS011;6425;50.316;8.114;2023-04-03T17:21:00;7.2;;;6.8;;
12721;SDS011;6425;50.316;8.114;2023-04-03T17:24:00;7.2;;;6.8;;
12721;SDS011;6425;50.316;8.114;2023-04-03T17:27:00;6.8;;;6.3;;
12721;SDS011;6425;50.316;8.114;2023-04-03T17:30:00;6.8;;;6.3;;
12721;SDS011;6425;50.316;8.114;2023-04-03T17:33:00;8;;;7.2;;
12721;SDS011;6425;50.316;8.114;2023-04-03T17:36:00;8.6;;;8;;
12721;SDS011;6425;50.316;8.114;2023-04-03T17:39:00;8.6;;;8;;
12721;SDS011;6425;50.316;8.114;2023-04-03T17:42:00;7.7;;;7.1;;
12721;SDS011;6425;50.316;8.114;2023-04-03T17:45:00;7.7;;;7.1;;
12721;SDS011;6425;50.316;8.114;2023-04-03T17:48:00;7.8;;;7.2;;
12721;SDS011;6425;50.316;8.114;2023-04-03T17:51:02;6.9;;;6.6;;
12721;SDS011;6425;50.316;8.114;2023-04-03T17:54:00;6.9;;;6.6;;
12721;SDS011;6425;50.316;8.114;2023-04-03T17:57:00;6.7;;;6.3;;
12721;SDS011;6425;50.316;8.114;2023-04-03T18:00:00;6.7;;;6.3;;
12721;SDS011;6425;50.316;8.114;2023-04-03T18:03:00;8;;;7.2;;
12721;SDS011;6425;50.316;8.114;2023-04-03T18:06:01;8.8;;;8.3;;
12721;SDS011;6425;50.316;8.114;2023-04-03T18:09:00;8.8;;;8.3;;
12721;SDS011;6425;50.316;8.114;2023-04-03T18:12:00;7.1;;;6.6;;
12721;SDS011;6425;50.316;8.114;2023-04-03T18:15:00;7.1;;;6.6;;
12721;SDS011;6425;50.316;8.114;2023-04-03T18:18:00;7.2;;;6.7;;
12721;SDS011;6425;50.316;8.114;2023-04-03T18:21:00;6.4;;;6;;
12721;SDS011;6425;50.316;8.114;2023-04-03T18:24:00;6.4;;;6;;
12721;SDS011;6425;50.316;8.114;2023-04-03T18:27:01;4.6;;;4.3;;
12721;SDS011;6425;50.316;8.114;2023-04-03T18:30:00;4.6;;;4.3;;
12721;SDS011;6425;50.316;8.114;2023-04-03T18:33:00;6;;;5.6;;
12721;SDS011;6425;50.316;8.114;2023-04-03T18:36:01;6.4;;;6;;
12721;SDS011;6425;50.316;8.114;2023-04-03T18:39:00;6.4;;;6;;
12721;SDS011;6425;50.316;8.114;2023-04-03T18:42:02;6.4;;;5.9;;
12721;SDS011;6425;50.316;8.114;2023-04-03T18:45:00;6.4;;;5.9;;
12721;SDS011;6425;50.316;8.114;2023-04-03T18:48:00;4.7;;;4.4;;
12721;SDS011;6425;50.316;8.114;2023-04-03T18:51:00;5.6;;;5.1;;
12721;SDS011;6425;50.316;8.114;2023-04-03T18:54:00;5.6;;;5.1;;
12721;SDS011;6425;50.316;8.114;2023-04-03T18:57:00;5.5;;;5.2;;
12721;SDS011;6425;50.316;8.114;2023-04-03T19:00:00;5.5;;;5.2;;
12721;SDS011;6425;50.316;8.114;2023-04-03T19:03:00;5.6;;;5;;
12721;SDS011;6425;50.316;8.114;2023-04-03T19:06:00;4.6;;;4.2;;
12721;SDS011;6425;50.316;8.114;2023-04-03T19:09:00;4.6;;;4.2;;
12721;SDS011;6425;50.316;8.114;2023-04-03T19:12:00;5.9;;;4.1;;
12721;SDS011;6425;50.316;8.114;2023-04-03T19:15:00;5.9;;;4.1;;
12721;SDS011;6425;50.316;8.114;2023-04-03T19:18:00;4.7;;;4.4;;
12721;SDS011;6425;50.316;8.114;2023-04-03T19:21:00;6.6;;;6.1;;
12721;SDS011;6425;50.316;8.114;2023-04-03T19:24:00;6.6;;;6.1;;
12721;SDS011;6425;50.316;8.114;2023-04-03T19:27:00;5.9;;;5.4;;
12721;SDS011;6425;50.316;8.114;2023-04-03T19:30:00;5.9;;;5.4;;
12721;SDS011;6425;50.316;8.114;2023-04-03T19:33:00;6.6;;;5.9;;
12721;SDS011;6425;50.316;8.114;2023-04-03T19:36:00;5.9;;;5.5;;
12721;SDS011;6425;50.316;8.114;2023-04-03T19:39:00;5.9;;;5.5;;
12721;SDS011;6425;50.316;8.114;2023-04-03T19:42:00;5.5;;;5.2;;